Time;durP1;ratioP1;P1;durP2;ratioP2;P2;SDS_P1;SDS_P2;PMS_P1;PMS_P2;Temp;Humidity;BMP_temperature;BMP_pressure;BME280_temperature;BME280_humidity;BME280_pressure;Samples;Min_cycle;Max_cycle;Signal;HPM_P1;HPM_P2
2023/12/05 00:00:29;;;;;;;15.02;8.82;;;2.60;99.90;;;;;;6210908;23;19997;-59
2023/12/05 00:02:54;;;;;;;14.45;8.82;;;2.50;99.90;;;;;;6210911;23;20071;-60
2023/12/05 00:05:20;;;;;;;18.30;9.07;;;2.50;99.90;;;;;;6211618;23;20495;-58
2023/12/05 00:07:46;;;;;;;15.20;8.43;;;2.50;99.90;;;;;;6197525;22;20029;-60
2023/12/05 00:10:11;;;;;;;15.75;9.00;;;2.50;99.90;;;;;;6211290;23;20016;-60
2023/12/05 00:12:37;;;;;;;16.55;9.23;;;2.60;99.90;;;;;;6211324;23;20005;-59
2023/12/05 00:15:03;;;;;;;14.90;8.80;;;2.60;99.90;;;;;;6211833;23;20009;-60
2023/12/05 00:17:29;;;;;;;12.18;8.20;;;2.60;99.90;;;;;;6211440;22;20001;-59
2023/12/05 00:19:55;;;;;;;15.48;8.98;;;2.70;99.90;;;;;;6211102;23;20005;-59
2023/12/05 00:22:20;;;;;;;17.92;9.00;;;2.70;99.90;;;;;;6211167;23;20360;-60
2023/12/05 00:24:46;;;;;;;14.88;8.98;;;2.60;99.90;;;;;;6210855;23;20033;-59
2023/12/05 00:27:11;;;;;;;16.77;8.68;;;2.60;99.90;;;;;;6211131;23;20465;-59
2023/12/05 00:29:37;;;;;;;15.35;8.80;;;2.60;99.90;;;;;;6211267;23;20008;-58
2023/12/05 00:32:03;;;;;;;16.27;9.38;;;2.60;99.90;;;;;;6211228;23;19997;-60
2023/12/05 00:34:29;;;;;;;18.02;9.10;;;2.60;99.90;;;;;;6210706;23;20478;-60
2023/12/05 00:36:55;;;;;;;15.48;8.77;;;2.70;99.90;;;;;;6210816;23;19996;-60
2023/12/05 00:39:20;;;;;;;16.00;8.80;;;2.70;99.90;;;;;;6210161;23;20468;-60
2023/12/05 00:41:47;;;;;;;17.75;8.52;;;2.70;99.90;;;;;;6209905;23;20009;-59
2023/12/05 00:44:12;;;;;;;15.20;8.63;;;2.70;99.90;;;;;;6210772;23;20004;-58
2023/12/05 00:46:38;;;;;;;16.90;9.13;;;2.60;99.90;;;;;;6210260;23;20004;-59
2023/12/05 00:49:04;;;;;;;16.45;8.73;;;2.70;99.90;;;;;;6209257;23;20047;-59
2023/12/05 00:51:30;;;;;;;17.02;8.07;;;2.70;99.90;;;;;;6210382;23;19997;-58
2023/12/05 00:53:56;;;;;;;15.57;7.80;;;2.70;99.90;;;;;;6210387;23;20413;-58
2023/12/05 00:56:21;;;;;;;16.95;9.20;;;2.70;99.90;;;;;;6209407;23;20028;-59
2023/12/05 00:58:47;;;;;;;16.88;9.30;;;2.70;99.90;;;;;;6183803;23;20011;-63
2023/12/05 01:01:13;;;;;;;15.32;8.52;;;2.70;99.90;;;;;;6210777;23;20069;-59
2023/12/05 01:03:39;;;;;;;16.15;8.80;;;2.80;99.90;;;;;;6210861;23;20008;-60
2023/12/05 01:06:05;;;;;;;18.58;8.73;;;2.80;99.90;;;;;;6183535;23;20001;-57
2023/12/05 01:08:31;;;;;;;15.80;8.25;;;2.80;99.90;;;;;;6185414;22;20020;-59
2023/12/05 01:10:57;;;;;;;16.05;9.02;;;2.80;99.90;;;;;;6181830;23;20429;-60
2023/12/05 01:13:24;;;;;;;13.90;8.18;;;2.80;99.90;;;;;;6208206;23;20036;-61
2023/12/05 01:15:50;;;;;;;12.70;7.32;;;2.80;99.90;;;;;;6208802;22;20004;-59
2023/12/05 01:18:15;;;;;;;14.13;7.93;;;2.80;99.90;;;;;;6208314;23;20015;-60
2023/12/05 01:20:41;;;;;;;14.52;8.70;;;2.80;99.90;;;;;;6208522;23;20023;-59
2023/12/05 01:23:07;;;;;;;14.20;8.18;;;2.80;99.90;;;;;;6208371;23;20000;-62
2023/12/05 01:25:32;;;;;;;14.32;7.50;;;2.80;99.90;;;;;;6208384;23;20012;-57
2023/12/05 01:27:58;;;;;;;14.32;8.45;;;2.90;99.90;;;;;;6208791;23;20340;-61
2023/12/05 01:30:24;;;;;;;15.25;8.68;;;2.90;99.90;;;;;;6207478;23;20005;-59
2023/12/05 01:32:50;;;;;;;16.45;8.70;;;2.90;99.90;;;;;;6208519;22;20004;-60
2023/12/05 01:35:16;;;;;;;15.65;8.70;;;2.90;99.90;;;;;;6208852;23;20088;-59
2023/12/05 01:37:42;;;;;;;14.73;8.18;;;2.80;99.90;;;;;;6208036;23;20005;-63
2023/12/05 01:40:09;;;;;;;15.85;8.18;;;2.80;99.90;;;;;;6171373;23;20040;-60
2023/12/05 01:42:38;;;;;;;14.07;7.05;;;2.80;99.90;;;;;;6208228;23;20452;-59
2023/12/05 01:45:08;;;;;;;16.40;8.80;;;2.80;99.90;;;;;;6208522;22;20028;-58
2023/12/05 01:47:35;;;;;;;11.98;7.35;;;2.90;99.90;;;;;;6208276;23;20375;-61
2023/12/05 01:50:03;;;;;;;15.15;8.38;;;2.90;99.90;;;;;;6206881;23;20108;-59
2023/12/05 01:52:30;;;;;;;17.63;7.78;;;2.90;99.90;;;;;;6209216;23;20001;-60
2023/12/05 01:54:56;;;;;;;18.60;8.15;;;2.90;99.90;;;;;;6182121;22;20001;-59
2023/12/05 01:57:24;;;;;;;14.50;8.10;;;2.90;99.90;;;;;;6208501;23;20065;-60
2023/12/05 01:59:52;;;;;;;14.50;8.57;;;2.90;99.90;;;;;;6208269;23;20024;-60
2023/12/05 02:02:18;;;;;;;14.52;8.13;;;2.90;99.90;;;;;;6209247;22;20076;-59
2023/12/05 02:04:44;;;;;;;14.00;7.85;;;2.90;99.90;;;;;;6208513;22;20009;-60
2023/12/05 02:07:12;;;;;;;12.45;8.20;;;2.90;99.90;;;;;;6208567;23;20028;-60
2023/12/05 02:09:38;;;;;;;14.70;8.13;;;2.90;99.90;;;;;;6186423;22;20103;-60
2023/12/05 02:12:04;;;;;;;15.52;8.95;;;2.90;99.90;;;;;;6209229;23;20026;-62
2023/12/05 02:14:30;;;;;;;13.25;7.65;;;2.90;99.90;;;;;;6208775;23;20058;-59
2023/12/05 02:17:01;;;;;;;17.77;8.55;;;2.90;99.90;;;;;;6207988;23;20371;-59
2023/12/05 02:19:58;;;;;;;14.80;8.63;;;3.00;99.90;;;;;;6208625;23;20004;-60
2023/12/05 02:23:11;;;;;;;13.93;7.28;;;3.00;99.90;;;;;;6208477;23;20144;-60
2023/12/05 02:25:57;;;;;;;14.82;7.57;;;3.00;99.90;;;;;;6242693;22;20009;-59
2023/12/05 02:28:25;;;;;;;12.18;7.47;;;3.00;99.90;;;;;;6209074;22;20479;-58
2023/12/05 02:30:51;;;;;;;14.85;8.48;;;3.00;99.90;;;;;;6208510;23;19997;-60
2023/12/05 02:33:16;;;;;;;14.55;7.85;;;3.00;99.90;;;;;;6208217;23;20001;-59
2023/12/05 02:35:42;;;;;;;15.05;8.35;;;3.00;99.90;;;;;;6208373;23;20080;-60
2023/12/05 02:38:32;;;;;;;16.88;8.55;;;3.00;99.90;;;;;;6208817;23;20065;-58
2023/12/05 02:41:20;;;;;;;11.38;6.90;;;3.00;99.90;;;;;;6208674;22;20028;-60
2023/12/05 02:43:55;;;;;;;12.50;7.38;;;3.10;99.90;;;;;;6182252;22;20387;-60
2023/12/05 02:46:21;;;;;;;11.57;6.97;;;3.10;99.90;;;;;;6208477;23;20012;-58
2023/12/05 02:48:49;;;;;;;12.95;7.13;;;3.10;99.90;;;;;;6208547;23;20004;-60
2023/12/05 02:51:15;;;;;;;12.45;7.78;;;3.20;99.90;;;;;;6208369;23;20009;-57
2023/12/05 02:53:41;;;;;;;14.77;8.02;;;3.20;99.90;;;;;;6207704;23;20001;-59
2023/12/05 02:56:07;;;;;;;11.55;6.65;;;3.20;99.90;;;;;;6180777;23;20008;-60
2023/12/05 02:58:32;;;;;;;14.85;7.00;;;3.20;99.90;;;;;;6207591;23;20324;-60
2023/12/05 03:00:59;;;;;;;11.60;6.80;;;3.30;99.90;;;;;;6207303;23;20013;-60
2023/12/05 03:03:24;;;;;;;11.52;7.35;;;3.30;99.90;;;;;;6207716;23;20097;-60
2023/12/05 03:05:50;;;;;;;10.32;6.38;;;3.30;99.90;;;;;;6206556;23;20028;-59
2023/12/05 03:08:15;;;;;;;14.23;7.57;;;3.30;99.90;;;;;;6169608;23;20015;-60
2023/12/05 03:10:41;;;;;;;12.73;7.43;;;3.30;99.90;;;;;;6207041;23;20505;-60
2023/12/05 03:13:06;;;;;;;11.70;7.40;;;3.30;99.90;;;;;;6206581;23;20010;-60
2023/12/05 03:15:32;;;;;;;9.32;6.78;;;3.30;99.90;;;;;;6207102;23;20050;-57
2023/12/05 03:17:58;;;;;;;12.88;7.25;;;3.30;99.90;;;;;;6207613;23;20007;-60
2023/12/05 03:20:24;;;;;;;10.90;6.30;;;3.40;99.90;;;;;;6207065;23;20004;-59
2023/12/05 03:22:50;;;;;;;10.15;6.13;;;3.40;99.90;;;;;;6207711;23;20375;-60
2023/12/05 03:25:15;;;;;;;14.57;7.88;;;3.40;99.90;;;;;;6207444;23;19997;-59
2023/12/05 03:27:41;;;;;;;10.32;6.88;;;3.40;99.90;;;;;;6207503;23;20001;-59
2023/12/05 03:30:07;;;;;;;13.52;6.97;;;3.40;99.90;;;;;;6206882;23;20380;-59
2023/12/05 03:32:34;;;;;;;10.93;6.53;;;3.40;99.90;;;;;;6207516;22;20004;-60
2023/12/05 03:34:59;;;;;;;11.07;6.28;;;3.40;99.90;;;;;;6206569;23;20000;-60
2023/12/05 03:37:25;;;;;;;12.25;6.32;;;3.50;99.90;;;;;;6206489;23;20096;-58
2023/12/05 03:39:50;;;;;;;12.57;6.50;;;3.50;99.90;;;;;;6206873;23;20070;-59
2023/12/05 03:42:16;;;;;;;11.82;6.93;;;3.50;99.90;;;;;;6207109;23;20433;-60
2023/12/05 03:44:41;;;;;;;12.82;6.82;;;3.50;99.90;;;;;;6206895;23;20083;-59
2023/12/05 03:47:07;;;;;;;10.70;5.53;;;3.60;99.90;;;;;;6206895;23;20455;-60
2023/12/05 03:49:33;;;;;;;12.93;6.18;;;3.60;99.90;;;;;;6206200;23;20050;-59
2023/12/05 03:52:01;;;;;;;10.13;6.68;;;3.60;99.90;;;;;;6207340;23;20001;-60
2023/12/05 03:54:27;;;;;;;10.60;6.53;;;3.60;99.90;;;;;;6207434;23;20485;-59
2023/12/05 03:56:52;;;;;;;10.52;6.43;;;3.60;99.90;;;;;;6206139;23;20024;-60
2023/12/05 03:59:18;;;;;;;12.50;7.28;;;3.50;99.90;;;;;;6206235;23;19997;-60
2023/12/05 04:01:44;;;;;;;8.15;5.43;;;3.60;99.90;;;;;;6206919;23;20004;-59
2023/12/05 04:04:09;;;;;;;10.05;6.32;;;3.60;99.90;;;;;;6206845;23;20336;-60
2023/12/05 04:06:35;;;;;;;9.50;6.32;;;3.60;99.90;;;;;;6207151;23;20462;-60
2023/12/05 04:09:00;;;;;;;11.43;6.10;;;3.60;99.90;;;;;;6180685;23;20092;-59
2023/12/05 04:11:30;;;;;;;12.82;6.72;;;3.70;99.90;;;;;;6207127;23;20016;-59
2023/12/05 04:13:56;;;;;;;9.77;5.82;;;3.70;99.90;;;;;;6206928;23;20015;-59
2023/12/05 04:16:23;;;;;;;8.98;5.97;;;3.80;99.90;;;;;;6206765;23;20466;-60
2023/12/05 04:18:48;;;;;;;9.52;5.78;;;3.80;99.90;;;;;;6206278;23;20053;-59
2023/12/05 04:21:14;;;;;;;9.45;5.78;;;3.80;99.90;;;;;;6206059;23;20675;-58
2023/12/05 04:23:40;;;;;;;10.98;6.20;;;3.80;99.90;;;;;;6206976;23;20509;-60
2023/12/05 04:26:06;;;;;;;10.80;6.10;;;3.80;99.90;;;;;;6206737;23;20050;-59
2023/12/05 04:28:32;;;;;;;9.57;5.85;;;3.90;99.90;;;;;;6206722;23;20005;-60
2023/12/05 04:30:58;;;;;;;10.15;5.75;;;3.90;99.90;;;;;;6206934;23;20065;-60
2023/12/05 04:33:23;;;;;;;10.20;5.85;;;3.90;99.90;;;;;;6206627;23;20005;-60
2023/12/05 04:35:49;;;;;;;9.80;6.00;;;3.90;99.90;;;;;;6206699;23;20020;-59
2023/12/05 04:38:16;;;;;;;11.32;6.70;;;4.00;99.90;;;;;;6206375;23;20009;-60
2023/12/05 04:40:41;;;;;;;9.80;6.00;;;4.00;99.90;;;;;;6206796;22;20158;-60
2023/12/05 04:43:07;;;;;;;8.88;6.13;;;4.00;99.90;;;;;;6208007;23;20444;-60
2023/12/05 04:45:33;;;;;;;12.18;7.20;;;4.00;99.90;;;;;;6207756;23;20053;-59
2023/12/05 04:47:58;;;;;;;11.05;6.22;;;4.00;99.90;;;;;;6207906;23;20389;-59
2023/12/05 04:50:24;;;;;;;9.95;5.82;;;4.00;99.90;;;;;;6208220;23;20648;-60
2023/12/05 04:52:49;;;;;;;10.98;5.95;;;4.00;99.90;;;;;;6208188;23;20005;-59
2023/12/05 04:55:15;;;;;;;9.98;5.97;;;4.00;99.90;;;;;;6207658;23;20024;-60
2023/12/05 04:57:40;;;;;;;8.05;5.07;;;4.00;99.90;;;;;;6208288;23;20008;-59
2023/12/05 05:00:08;;;;;;;9.20;6.18;;;4.00;99.90;;;;;;6207748;23;20072;-60
2023/12/05 05:02:34;;;;;;;9.00;5.18;;;4.00;99.90;;;;;;6207385;23;20000;-60
2023/12/05 05:04:59;;;;;;;12.32;6.75;;;4.00;99.90;;;;;;6207970;23;20008;-60
2023/12/05 05:07:25;;;;;;;9.00;5.43;;;4.00;99.90;;;;;;6207824;23;20016;-59
2023/12/05 05:09:51;;;;;;;9.23;5.97;;;4.10;99.90;;;;;;6181353;23;20017;-60
2023/12/05 05:12:17;;;;;;;10.00;5.93;;;4.10;99.90;;;;;;6208023;23;20012;-59
2023/12/05 05:14:43;;;;;;;10.10;5.82;;;4.10;99.90;;;;;;6208030;23;20000;-60
2023/12/05 05:17:09;;;;;;;7.65;5.38;;;4.10;99.90;;;;;;6207710;23;20143;-60
2023/12/05 05:19:35;;;;;;;9.80;6.07;;;4.10;99.90;;;;;;6206576;23;20035;-59
2023/12/05 05:22:00;;;;;;;10.10;6.25;;;4.10;99.90;;;;;;6206734;23;20314;-59
2023/12/05 05:24:26;;;;;;;13.13;5.93;;;4.10;99.90;;;;;;6208484;23;20080;-58
2023/12/05 05:26:53;;;;;;;9.27;5.93;;;4.10;99.90;;;;;;6207594;23;20061;-62
2023/12/05 05:29:18;;;;;;;8.18;5.25;;;4.20;99.90;;;;;;6207909;23;20008;-59
2023/12/05 05:31:44;;;;;;;10.55;5.68;;;4.20;99.90;;;;;;6208107;23;20009;-60
2023/12/05 05:34:10;;;;;;;9.02;6.18;;;4.20;99.90;;;;;;6207601;23;20001;-59
2023/12/05 05:36:35;;;;;;;8.90;5.63;;;4.20;99.90;;;;;;6207542;23;20088;-60
2023/12/05 05:39:01;;;;;;;9.77;5.88;;;4.20;99.90;;;;;;6207701;23;20009;-60
2023/12/05 05:41:26;;;;;;;10.52;5.38;;;4.20;99.90;;;;;;6207923;23;20015;-59
2023/12/05 05:43:53;;;;;;;8.73;5.30;;;4.20;99.90;;;;;;6207738;23;20005;-60
2023/12/05 05:46:18;;;;;;;12.55;5.80;;;4.20;99.90;;;;;;6206757;23;20505;-59
2023/12/05 05:48:44;;;;;;;10.05;5.40;;;4.20;99.90;;;;;;6207954;23;20236;-60
2023/12/05 05:51:09;;;;;;;8.32;4.95;;;4.30;99.90;;;;;;6181404;23;20067;-60
2023/12/05 05:53:35;;;;;;;10.40;6.03;;;4.30;99.90;;;;;;6207511;23;20417;-60
2023/12/05 05:56:01;;;;;;;9.13;5.10;;;4.30;99.90;;;;;;6207393;23;20027;-60
2023/12/05 05:58:28;;;;;;;8.98;5.50;;;4.40;99.90;;;;;;6207558;23;20382;-60
2023/12/05 06:00:53;;;;;;;10.70;5.25;;;4.40;99.90;;;;;;6207516;23;20004;-59
2023/12/05 06:03:19;;;;;;;9.35;5.85;;;4.40;99.90;;;;;;6207668;23;20023;-59
2023/12/05 06:05:44;;;;;;;10.32;5.40;;;4.40;99.90;;;;;;6207530;23;20012;-59
2023/12/05 06:08:10;;;;;;;10.70;5.60;;;4.40;99.90;;;;;;6207688;23;20001;-60
2023/12/05 06:10:36;;;;;;;11.13;6.05;;;4.40;99.90;;;;;;6181237;23;20021;-59
2023/12/05 06:13:02;;;;;;;7.53;4.95;;;4.40;99.90;;;;;;6207992;23;20016;-58
2023/12/05 06:15:27;;;;;;;11.20;6.03;;;4.40;99.90;;;;;;6207245;23;20004;-60
2023/12/05 06:17:54;;;;;;;11.15;6.05;;;4.40;99.90;;;;;;6207645;23;20009;-59
2023/12/05 06:20:19;;;;;;;8.77;5.10;;;4.50;99.90;;;;;;6207402;23;20032;-59
2023/12/05 06:22:45;;;;;;;10.00;5.70;;;4.50;99.90;;;;;;6207976;23;20053;-59
2023/12/05 06:25:10;;;;;;;8.18;4.75;;;4.50;99.90;;;;;;6207083;23;20075;-59
2023/12/05 06:27:36;;;;;;;8.35;4.93;;;4.50;99.90;;;;;;6207526;23;20437;-59
2023/12/05 06:30:02;;;;;;;10.32;5.03;;;4.40;99.90;;;;;;6207910;23;20036;-60
2023/12/05 06:32:28;;;;;;;10.55;4.63;;;4.40;99.90;;;;;;6207575;23;20001;-60
2023/12/05 06:34:53;;;;;;;6.75;4.45;;;4.40;99.90;;;;;;6207589;23;20074;-57
2023/12/05 06:37:20;;;;;;;13.05;6.05;;;4.40;99.90;;;;;;6207092;23;20001;-59
2023/12/05 06:39:46;;;;;;;14.68;7.95;;;4.40;99.90;;;;;;6206775;23;20088;-59
2023/12/05 06:42:11;;;;;;;13.85;6.95;;;4.50;99.90;;;;;;6207194;23;20085;-59
2023/12/05 06:44:37;;;;;;;17.50;9.55;;;4.50;99.90;;;;;;6207821;23;20454;-60
2023/12/05 06:47:03;;;;;;;16.85;8.60;;;4.40;99.90;;;;;;6206883;23;20009;-60
2023/12/05 06:49:28;;;;;;;23.95;13.00;;;4.40;99.90;;;;;;6207422;23;20005;-58
2023/12/05 06:51:57;;;;;;;8.00;5.00;;;4.40;99.90;;;;;;6207161;23;20300;-60
2023/12/05 06:54:23;;;;;;;8.48;4.90;;;4.50;99.90;;;;;;6207491;23;20066;-58
2023/12/05 06:56:49;;;;;;;9.00;4.97;;;4.50;99.90;;;;;;6207407;23;20411;-59
2023/12/05 06:59:15;;;;;;;7.90;4.75;;;4.50;99.90;;;;;;6207107;23;20348;-58
2023/12/05 07:01:41;;;;;;;7.85;4.90;;;4.50;99.90;;;;;;6208063;23;20005;-60
2023/12/05 07:04:07;;;;;;;9.20;4.72;;;4.50;99.90;;;;;;6207590;23;20434;-58
2023/12/05 07:06:32;;;;;;;8.13;5.03;;;4.50;99.90;;;;;;6206317;23;20008;-59
2023/12/05 07:08:58;;;;;;;8.00;4.55;;;4.50;99.90;;;;;;6182807;23;20088;-60
2023/12/05 07:11:27;;;;;;;6.28;4.00;;;4.50;99.90;;;;;;6207504;23;20005;-59
2023/12/05 07:13:53;;;;;;;9.88;5.50;;;4.50;99.90;;;;;;6207327;23;20008;-58
2023/12/05 07:16:19;;;;;;;9.68;4.45;;;4.50;99.90;;;;;;6207058;22;20001;-60
2023/12/05 07:18:46;;;;;;;6.43;4.00;;;4.50;99.90;;;;;;6206931;23;20008;-60
2023/12/05 07:21:11;;;;;;;9.45;5.78;;;4.60;99.90;;;;;;6207020;23;20001;-60
2023/12/05 07:23:37;;;;;;;9.98;5.45;;;4.60;99.90;;;;;;6207113;23;20058;-60
2023/12/05 07:26:03;;;;;;;14.88;6.97;;;4.50;99.90;;;;;;6207112;23;20032;-59
2023/12/05 07:28:29;;;;;;;9.88;5.15;;;4.60;99.90;;;;;;6206820;23;20008;-60
2023/12/05 07:30:55;;;;;;;13.23;7.00;;;4.60;99.90;;;;;;6207088;23;20084;-60
2023/12/05 07:33:21;;;;;;;7.72;4.55;;;4.60;99.90;;;;;;6206401;23;20004;-60
2023/12/05 07:35:47;;;;;;;9.80;5.93;;;4.60;99.90;;;;;;6207031;23;19997;-60
2023/12/05 07:38:12;;;;;;;10.57;4.05;;;4.60;99.90;;;;;;6206904;23;20008;-60
2023/12/05 07:40:38;;;;;;;10.20;5.75;;;4.70;99.90;;;;;;6206511;23;20429;-59
2023/12/05 07:43:04;;;;;;;10.20;4.57;;;4.70;99.90;;;;;;6207393;23;20008;-58
2023/12/05 07:45:30;;;;;;;13.77;7.07;;;4.70;99.90;;;;;;6207073;23;20004;-60
2023/12/05 07:47:56;;;;;;;12.82;5.47;;;4.70;99.90;;;;;;6206415;23;20058;-60
2023/12/05 07:50:22;;;;;;;9.95;6.05;;;4.70;99.90;;;;;;6207100;23;20324;-60
2023/12/05 07:52:49;;;;;;;7.93;5.30;;;4.70;99.90;;;;;;6206438;23;19996;-60
2023/12/05 07:55:16;;;;;;;11.55;6.43;;;4.80;99.90;;;;;;6207295;23;20009;-59
2023/12/05 07:57:42;;;;;;;12.38;7.00;;;4.80;99.90;;;;;;6207496;23;20012;-60
2023/12/05 08:00:14;;;;;;;9.85;5.43;;;4.80;99.90;;;;;;6206610;23;19997;-60
2023/12/05 08:02:40;;;;;;;8.02;4.20;;;4.80;99.90;;;;;;6206502;23;20008;-59
2023/12/05 08:05:06;;;;;;;7.43;3.83;;;4.80;99.90;;;;;;6207080;23;20386;-60
2023/12/05 08:07:31;;;;;;;5.13;3.00;;;4.90;99.90;;;;;;6206741;23;20026;-59
2023/12/05 08:09:57;;;;;;;4.47;2.95;;;5.00;99.90;;;;;;6179386;23;20009;-60
2023/12/05 08:12:22;;;;;;;6.10;2.97;;;5.00;99.90;;;;;;6206900;23;20640;-59
2023/12/05 08:14:48;;;;;;;4.88;2.80;;;5.00;99.90;;;;;;6206514;23;20042;-60
2023/12/05 08:17:14;;;;;;;4.82;2.90;;;5.10;99.90;;;;;;6207266;23;20016;-59
2023/12/05 08:19:39;;;;;;;5.93;2.63;;;5.20;99.90;;;;;;6208162;23;20001;-60
2023/12/05 08:22:05;;;;;;;4.90;2.50;;;5.30;99.90;;;;;;6208171;23;20080;-60
2023/12/05 08:24:30;;;;;;;4.43;2.72;;;5.30;99.90;;;;;;6207975;23;19996;-61
2023/12/05 08:26:56;;;;;;;4.82;2.50;;;5.50;99.90;;;;;;6207503;23;20087;-60
2023/12/05 08:29:21;;;;;;;5.07;2.95;;;5.50;99.90;;;;;;6207884;23;20038;-59
2023/12/05 08:31:47;;;;;;;3.70;2.38;;;5.70;99.90;;;;;;6207843;23;20075;-60
2023/12/05 08:34:12;;;;;;;4.88;2.50;;;5.70;99.90;;;;;;6207864;23;20456;-60
2023/12/05 08:36:42;;;;;;;2.58;1.77;;;5.80;99.90;;;;;;6207660;23;20012;-60
2023/12/05 08:39:08;;;;;;;3.13;1.95;;;5.90;99.90;;;;;;6207922;23;20447;-60
2023/12/05 08:41:34;;;;;;;4.82;1.95;;;6.00;99.90;;;;;;6207478;23;20007;-59
2023/12/05 08:43:59;;;;;;;3.42;2.08;;;6.10;99.90;;;;;;6208074;23;19997;-60
2023/12/05 08:46:25;;;;;;;2.20;1.40;;;6.10;99.90;;;;;;6207903;23;20030;-60
2023/12/05 08:48:50;;;;;;;2.28;1.40;;;6.10;99.90;;;;;;6207653;23;20066;-60
2023/12/05 08:51:18;;;;;;;3.30;1.50;;;6.20;99.90;;;;;;6207488;23;20381;-59
2023/12/05 08:53:44;;;;;;;3.22;1.67;;;6.20;99.90;;;;;;6208151;23;20425;-60
2023/12/05 08:56:10;;;;;;;2.20;1.52;;;6.20;99.90;;;;;;6207966;23;19997;-60
2023/12/05 08:58:36;;;;;;;2.35;1.10;;;6.20;99.90;;;;;;6207407;23;20079;-59
2023/12/05 09:01:02;;;;;;;2.63;1.48;;;6.20;99.90;;;;;;6207070;23;20007;-60
2023/12/05 09:03:29;;;;;;;6.00;1.92;;;6.20;99.90;;;;;;6207546;23;20005;-59
2023/12/05 09:05:54;;;;;;;2.40;1.50;;;6.20;99.90;;;;;;6207584;23;20001;-58
2023/12/05 09:08:21;;;;;;;6.63;3.05;;;6.30;99.90;;;;;;6187001;23;20016;-60
2023/12/05 09:10:47;;;;;;;3.72;2.38;;;6.30;99.90;;;;;;6098218;22;20021;-81
2023/12/05 09:13:14;;;;;;;6.32;3.45;;;6.30;99.90;;;;;;6167534;23;20062;-81
2023/12/05 09:15:40;;;;;;;9.30;4.60;;;6.30;99.90;;;;;;6165207;23;20438;-81
2023/12/05 09:18:06;;;;;;;9.90;5.25;;;6.30;99.90;;;;;;6164218;23;20016;-82
2023/12/05 09:20:33;;;;;;;4.82;2.00;;;6.40;99.90;;;;;;6158826;22;20035;-81
2023/12/05 09:22:59;;;;;;;5.95;2.30;;;6.40;99.90;;;;;;6134180;23;20016;-81
2023/12/05 09:25:24;;;;;;;2.63;1.58;;;6.40;99.90;;;;;;6133456;23;20010;-83
2023/12/05 09:27:50;;;;;;;1.90;1.20;;;6.40;99.90;;;;;;6131986;23;20081;-81
2023/12/05 09:30:18;;;;;;;2.75;1.85;;;6.40;99.90;;;;;;6130718;23;20009;-80
2023/12/05 09:32:43;;;;;;;2.92;1.70;;;6.40;99.90;;;;;;6131155;23;20060;-82
2023/12/05 09:35:09;;;;;;;1.92;1.20;;;6.50;99.90;;;;;;6130244;23;20012;-81
2023/12/05 09:37:35;;;;;;;4.25;1.80;;;6.50;99.90;;;;;;6130272;23;20325;-80
2023/12/05 09:40:01;;;;;;;2.05;1.17;;;6.60;99.90;;;;;;6128923;23;20065;-80
2023/12/05 09:42:28;;;;;;;2.55;1.42;;;6.60;99.90;;;;;;6129541;23;20089;-80
2023/12/05 09:44:57;;;;;;;6.97;3.80;;;6.70;99.90;;;;;;6130351;23;20005;-81
2023/12/05 09:47:27;;;;;;;4.28;2.17;;;6.70;99.90;;;;;;6129223;23;20009;-81
2023/12/05 09:49:55;;;;;;;3.08;1.70;;;6.60;99.90;;;;;;6130723;23;20006;-82
2023/12/05 09:52:21;;;;;;;6.45;2.88;;;6.70;99.90;;;;;;6128469;23;20006;-81
2023/12/05 09:54:49;;;;;;;7.85;3.50;;;6.70;99.90;;;;;;6130029;23;20026;-82
2023/12/05 09:57:15;;;;;;;5.20;2.33;;;6.70;99.90;;;;;;6128582;23;20055;-82
2023/12/05 09:59:41;;;;;;;3.78;2.25;;;6.70;99.90;;;;;;6143236;23;19990;-83
2023/12/05 10:02:08;;;;;;;3.08;1.23;;;6.70;99.90;;;;;;6145983;23;20015;-80
2023/12/05 10:04:59;;;;;;;1.80;1.17;;;6.70;99.90;;;;;;6133674;23;20002;-81
2023/12/05 10:07:27;;;;;;;2.85;1.15;;;6.70;99.90;;;;;;6132269;23;20029;-82
2023/12/05 10:09:55;;;;;;;2.47;1.30;;;6.70;99.90;;;;;;6132262;23;20006;-81
2023/12/05 10:12:20;;;;;;;2.55;1.50;;;6.80;99.90;;;;;;6132583;23;20002;-81
2023/12/05 10:14:46;;;;;;;5.05;2.30;;;6.80;99.90;;;;;;6132488;23;20044;-80
2023/12/05 10:17:12;;;;;;;8.13;1.98;;;6.80;99.90;;;;;;6159956;23;20028;-81
2023/12/05 10:19:38;;;;;;;5.82;2.35;;;6.80;99.90;;;;;;6133078;23;20010;-81
2023/12/05 10:22:04;;;;;;;2.65;1.38;;;6.90;99.90;;;;;;6138530;23;20045;-59
2023/12/05 10:24:42;;;;;;;3.40;1.48;;;6.90;99.90;;;;;;6175609;23;20030;-58
2023/12/05 10:27:08;;;;;;;5.85;2.75;;;7.00;99.90;;;;;;6176147;23;20001;-59
2023/12/05 10:29:39;;;;;;;3.10;1.63;;;7.00;99.90;;;;;;6175959;23;20013;-59
2023/12/05 10:32:05;;;;;;;2.25;1.13;;;7.00;99.90;;;;;;6175775;23;20009;-59
2023/12/05 10:34:44;;;;;;;3.50;0.65;;;6.90;99.90;;;;;;6174721;23;20081;-59
2023/12/05 10:37:10;;;;;;;2.78;0.95;;;7.00;99.90;;;;;;6175425;23;20005;-60
2023/12/05 10:39:36;;;;;;;2.58;0.73;;;6.90;99.90;;;;;;6175119;23;20358;-66
2023/12/05 10:42:02;;;;;;;0.95;0.82;;;6.90;99.90;;;;;;6175362;23;20031;-63
2023/12/05 10:44:27;;;;;;;3.38;2.20;;;7.00;99.90;;;;;;6175478;22;20076;-64
2023/12/05 10:46:59;;;;;;;3.72;1.38;;;7.00;99.90;;;;;;6175464;23;20354;-64
2023/12/05 10:49:24;;;;;;;4.95;2.58;;;7.00;99.90;;;;;;6173989;23;20002;-64
2023/12/05 10:51:50;;;;;;;2.25;0.90;;;7.10;99.90;;;;;;6175244;23;20009;-64
2023/12/05 10:54:17;;;;;;;3.72;0.98;;;7.00;99.90;;;;;;6176321;23;20012;-64
2023/12/05 10:56:59;;;;;;;2.15;1.05;;;7.10;99.90;;;;;;6176065;23;20077;-64
2023/12/05 10:59:27;;;;;;;68.07;18.10;;;7.20;99.90;;;;;;6173041;23;20009;-64
2023/12/05 11:01:56;;;;;;;45.35;14.20;;;7.20;99.90;;;;;;6175221;23;20501;-64
2023/12/05 11:04:27;;;;;;;51.65;15.70;;;7.20;99.90;;;;;;6176106;23;20328;-64
2023/12/05 11:06:53;;;;;;;17.05;7.03;;;7.30;99.90;;;;;;6175943;23;20058;-64
2023/12/05 11:09:20;;;;;;;8.13;4.85;;;7.20;99.90;;;;;;6173579;22;20064;-64
2023/12/05 11:11:48;;;;;;;7.68;3.55;;;7.30;99.90;;;;;;6171498;23;20009;-64
2023/12/05 11:14:15;;;;;;;4.10;2.10;;;7.30;99.90;;;;;;6175282;23;20005;-66
2023/12/05 11:16:49;;;;;;;3.85;1.58;;;7.30;99.90;;;;;;6175179;23;20054;-65
2023/12/05 11:19:17;;;;;;;;;;;7.30;99.90;;;;;;6176631;23;20015;-64
2023/12/05 11:22:10;;;;;;;3.30;2.03;;;7.30;99.90;;;;;;6175005;23;19919;-65
2023/12/05 11:24:58;;;;;;;3.20;1.73;;;7.40;99.90;;;;;;6175445;23;20005;-65
2023/12/05 11:27:45;;;;;;;2.40;1.20;;;7.30;99.90;;;;;;6175929;22;20558;-65
2023/12/05 11:30:29;;;;;;;3.95;2.70;;;7.40;99.90;;;;;;6174878;23;20001;-65
2023/12/05 11:33:12;;;;;;;4.97;1.55;;;7.30;99.90;;;;;;6176467;23;20352;-65
2023/12/05 11:36:01;;;;;;;11.60;4.80;;;7.40;99.90;;;;;;6175847;23;20005;-65
2023/12/05 11:38:29;;;;;;;6.63;2.88;;;7.40;99.90;;;;;;6176098;23;20108;-65
2023/12/05 11:41:11;;;;;;;1.95;0.77;;;7.40;99.90;;;;;;6175763;23;20020;-65
2023/12/05 11:43:37;;;;;;;3.55;2.15;;;7.30;99.90;;;;;;6175557;23;20351;-65
2023/12/05 11:46:03;;;;;;;1.98;1.13;;;7.30;99.90;;;;;;6175542;23;20013;-65
2023/12/05 11:48:30;;;;;;;3.67;1.52;;;7.30;99.90;;;;;;6174425;23;20009;-65
2023/12/05 11:50:56;;;;;;;2.72;1.50;;;7.30;99.90;;;;;;6148122;23;20005;-65
2023/12/05 11:53:22;;;;;;;2.08;1.40;;;7.40;99.90;;;;;;6175183;22;20004;-65
2023/12/05 11:55:48;;;;;;;5.97;1.98;;;7.40;99.90;;;;;;6175485;23;20001;-65
2023/12/05 11:58:34;;;;;;;10.00;5.07;;;7.40;99.90;;;;;;6174839;23;20009;-65
2023/12/05 12:01:12;;;;;;;3.83;1.98;;;7.50;99.90;;;;;;6175027;22;20013;-65
2023/12/05 12:03:45;;;;;;;3.28;0.98;;;7.60;99.90;;;;;;6173967;23;20013;-65
2023/12/05 12:06:11;;;;;;;8.88;4.38;;;7.60;99.90;;;;;;6147704;22;20013;-65
2023/12/05 12:08:36;;;;;;;7.68;2.22;;;7.70;99.90;;;;;;6154941;23;20048;-65
2023/12/05 12:11:03;;;;;;;8.80;4.07;;;7.80;99.90;;;;;;6175175;23;20012;-65
2023/12/05 12:13:29;;;;;;;10.18;4.70;;;7.80;99.90;;;;;;6173846;22;20002;-65
2023/12/05 12:15:55;;;;;;;6.90;3.42;;;7.80;99.90;;;;;;6175271;23;20005;-65
2023/12/05 12:18:27;;;;;;;6.30;2.72;;;7.70;99.90;;;;;;6175475;23;20492;-65
2023/12/05 12:20:53;;;;;;;7.45;3.17;;;7.60;99.90;;;;;;6174695;23;20037;-65
2023/12/05 12:23:19;;;;;;;6.13;2.50;;;7.60;99.90;;;;;;6174813;23;20050;-65
2023/12/05 12:25:54;;;;;;;4.38;2.08;;;7.50;99.90;;;;;;6175622;23;20066;-65
2023/12/05 12:28:28;;;;;;;2.08;0.90;;;7.40;99.90;;;;;;6175547;23;20002;-65
2023/12/05 12:30:55;;;;;;;1.73;0.90;;;7.40;99.90;;;;;;6174887;23;20786;-65
2023/12/05 12:33:22;;;;;;;1.60;0.90;;;7.40;99.90;;;;;;6174037;23;19997;-65
2023/12/05 12:35:49;;;;;;;3.28;0.95;;;7.30;99.90;;;;;;6174957;22;20005;-65
2023/12/05 12:38:15;;;;;;;3.35;1.02;;;7.30;99.90;;;;;;6175001;23;20006;-65
2023/12/05 12:40:41;;;;;;;1.65;1.00;;;7.30;99.90;;;;;;6173734;22;20092;-65
2023/12/05 12:43:08;;;;;;;2.25;1.08;;;7.30;99.90;;;;;;6175789;23;20286;-65
2023/12/05 12:45:34;;;;;;;1.45;0.80;;;7.30;99.90;;;;;;6174021;23;20468;-65
2023/12/05 12:48:03;;;;;;;2.08;1.40;;;7.30;99.90;;;;;;6175167;22;20497;-64
2023/12/05 12:50:29;;;;;;;4.55;0.98;;;7.30;99.90;;;;;;6174779;23;20125;-65
2023/12/05 12:52:56;;;;;;;2.55;1.33;;;7.30;99.90;;;;;;6175494;23;20419;-65